Main page
METAR-TAF:

METAR-TAF

Airports :

Chongqing Jiangbei International Airport

Chongqing, China

latitude: 29-31N, longitude: 106-29E, elevation: 351 m

Current weather observation

The report was made 31 minutes ago, at 00:00 UTC
Wind 4 kt from the North
Temperature 8°C
Humidity 71%
Pressure 1028 hPa
Visibility 10 km or more
no clouds below 1500 m and no cumulonimbus

METAR: ZUCK 180000Z 01002MPS CAVOK 08/03 Q1028 NOSIG

Time: 08:31 (00:31 UTC)

Forecast

The report was made 4 hours and 19 minutes ago, at 20:12 UTC
Forecast valid from 18 at 00 UTC to 18 at 24 UTC
Wind 6 kt from the North/Northeast
Visibility: 6000 m
Scattered clouds at a height of 4000 ft

TAF: ZUCK 172012Z 1800/1824 02003MPS 6000 SCT040 TX12/1807Z TN07/1800Z

Weather observations and forecasts of more than 4000 airports (METAR and TAF reports).

The available stations are represented by yellow and red dots on the map.

Hover mouse over dot to see the name of the station.

Then click to see weather observations and forecasts.

To change the map : click on the green buttons with a black cross to zoom in, on the green button with a dash to zoom out, or on the green arrows for adjacent maps.


METAR-TAF: